Time;durP1;ratioP1;P1;durP2;ratioP2;P2;SDS_P1;SDS_P2;PMS_P1;PMS_P2;Temp;Humidity;BMP_temperature;BMP_pressure;BME280_temperature;BME280_humidity;BME280_pressure;Samples;Min_cycle;Max_cycle;Signal;HPM_P1;HPM_P2
2022/11/02 00:00:35;;;;;;;22.05;4.07;;;;;;;;;;5089513;28;20500;-67
2022/11/02 00:03:01;;;;;;;20.20;4.05;;;;;;;;;;5089865;28;20063;-67
2022/11/02 00:05:27;;;;;;;16.30;3.80;;;;;;;;;;5089629;28;20048;-67
2022/11/02 00:07:54;;;;;;;16.25;3.60;;;;;;;;;;5089419;28;20440;-69
2022/11/02 00:10:21;;;;;;;19.45;4.25;;;;;;;;;;5089605;28;20069;-76
2022/11/02 00:12:47;;;;;;;16.15;3.80;;;;;;;;;;5089078;28;20058;-67
2022/11/02 00:15:13;;;;;;;16.50;3.28;;;;;;;;;;5089215;28;20175;-65
2022/11/02 00:17:40;;;;;;;16.00;3.80;;;;;;;;;;5089500;28;20489;-66
2022/11/02 00:20:07;;;;;;;15.85;3.15;;;;;;;;;;5089430;28;20120;-65
2022/11/02 00:22:33;;;;;;;;;;;;;;;;;;5090020;28;20456;-65
2022/11/02 00:25:00;;;;;;;13.20;3.45;;;;;;;;;;5089487;28;20008;-65
2022/11/02 00:27:26;;;;;;;13.27;3.05;;;;;;;;;;5089851;28;20048;-67
2022/11/02 00:29:52;;;;;;;;;;;;;;;;;;5090243;28;20036;-68
2022/11/02 00:32:18;;;;;;;12.65;2.83;;;;;;;;;;5088948;28;20331;-66
2022/11/02 00:34:44;;;;;;;10.88;2.90;;;;;;;;;;5089505;28;20378;-69
2022/11/02 00:37:11;;;;;;;11.55;2.80;;;;;;;;;;5088993;28;20192;-71
2022/11/02 00:39:37;;;;;;;12.02;2.90;;;;;;;;;;5089214;28;20379;-68
2022/11/02 00:42:03;;;;;;;11.70;2.78;;;;;;;;;;5089302;28;20418;-67
2022/11/02 00:44:29;;;;;;;13.00;2.95;;;;;;;;;;5089197;28;20336;-75
2022/11/02 00:46:55;;;;;;;15.60;3.50;;;;;;;;;;5087583;28;20177;-81
2022/11/02 00:49:22;;;;;;;13.30;3.30;;;;;;;;;;5089243;28;20040;-69
2022/11/02 00:51:48;;;;;;;13.32;3.10;;;;;;;;;;5089287;28;20135;-63
2022/11/02 00:54:14;;;;;;;12.98;2.67;;;;;;;;;;5089299;28;20048;-82
2022/11/02 00:56:40;;;;;;;11.35;2.95;;;;;;;;;;5088978;28;20124;-66
2022/11/02 00:59:06;;;;;;;12.57;2.97;;;;;;;;;;5089212;28;20048;-69
2022/11/02 01:01:32;;;;;;;10.88;2.50;;;;;;;;;;5089160;28;20078;-64
2022/11/02 01:03:58;;;;;;;11.40;2.60;;;;;;;;;;5088984;28;20130;-70
2022/11/02 01:06:24;;;;;;;10.52;2.83;;;;;;;;;;5088988;28;20043;-65
2022/11/02 01:08:50;;;;;;;12.02;3.05;;;;;;;;;;5088839;28;20044;-67
2022/11/02 01:11:18;;;;;;;12.15;2.95;;;;;;;;;;5089007;28;20051;-75
2022/11/02 01:13:44;;;;;;;9.27;2.80;;;;;;;;;;5088775;28;20432;-63
2022/11/02 01:16:10;;;;;;;10.10;2.30;;;;;;;;;;5088828;28;20129;-66
2022/11/02 01:18:36;;;;;;;12.98;2.95;;;;;;;;;;5088801;28;20075;-68
2022/11/02 01:21:02;;;;;;;9.07;2.33;;;;;;;;;;5088725;28;20051;-69
2022/11/02 01:23:28;;;;;;;;;;;;;;;;;;5089288;28;20218;-73
2022/11/02 01:25:54;;;;;;;10.80;2.53;;;;;;;;;;5088585;28;19963;-78
2022/11/02 01:28:20;;;;;;;12.15;2.72;;;;;;;;;;5088597;28;20071;-73
2022/11/02 01:30:47;;;;;;;11.98;2.50;;;;;;;;;;5088383;28;20087;-72
2022/11/02 01:33:13;;;;;;;11.68;2.50;;;;;;;;;;5088443;28;20051;-71
2022/11/02 01:35:39;;;;;;;8.35;2.10;;;;;;;;;;5088680;28;20102;-67
2022/11/02 01:38:05;;;;;;;9.07;2.55;;;;;;;;;;5088451;28;20108;-71
2022/11/02 01:40:39;;;;;;;8.93;2.50;;;;;;;;;;5088144;28;20424;-76
2022/11/02 01:43:21;;;;;;;8.43;2.30;;;;;;;;;;5088174;28;20582;-72
2022/11/02 01:45:48;;;;;;;9.23;2.15;;;;;;;;;;5088437;28;20508;-70
2022/11/02 01:48:15;;;;;;;8.77;2.10;;;;;;;;;;5089066;28;20104;-78
2022/11/02 01:50:41;;;;;;;8.40;2.10;;;;;;;;;;5091565;28;20044;-68
2022/11/02 01:53:07;;;;;;;;;;;;;;;;;;5092540;28;20044;-71
2022/11/02 01:55:34;;;;;;;10.07;2.22;;;;;;;;;;5091919;28;19946;-66
2022/11/02 01:58:02;;;;;;;9.52;2.47;;;;;;;;;;5092011;28;20093;-75
2022/11/02 02:00:28;;;;;;;8.18;2.45;;;;;;;;;;5090378;28;20044;-68
2022/11/02 02:02:56;;;;;;;8.38;2.13;;;;;;;;;;5091837;28;20048;-67
2022/11/02 02:05:23;;;;;;;13.23;3.17;;;;;;;;;;5091846;28;20159;-66
2022/11/02 02:07:50;;;;;;;14.70;3.05;;;;;;;;;;5091454;28;20444;-65
2022/11/02 02:10:16;;;;;;;7.60;2.20;;;;;;;;;;5091750;28;20141;-65
2022/11/02 02:12:42;;;;;;;11.18;2.60;;;;;;;;;;5091654;28;20083;-71
2022/11/02 02:15:08;;;;;;;;;;;;;;;;;;5091847;28;20156;-76
2022/11/02 02:17:40;;;;;;;8.00;2.25;;;;;;;;;;5090366;28;19978;-66
2022/11/02 02:20:10;;;;;;;13.18;2.85;;;;;;;;;;5089876;28;20126;-71
2022/11/02 02:22:42;;;;;;;15.93;3.60;;;;;;;;;;5091333;28;20491;-66
2022/11/02 02:25:26;;;;;;;9.70;3.20;;;;;;;;;;5091226;28;20048;-67
2022/11/02 02:28:11;;;;;;;9.07;3.60;;;;;;;;;;5091265;28;20154;-66
2022/11/02 02:30:40;;;;;;;10.10;3.47;;;;;;;;;;5090917;28;20043;-65
2022/11/02 02:33:13;;;;;;;12.48;3.72;;;;;;;;;;5090628;28;20424;-66
2022/11/02 02:35:41;;;;;;;11.93;3.50;;;;;;;;;;5090942;28;20478;-66
2022/11/02 02:38:14;;;;;;;13.35;3.95;;;;;;;;;;5091069;28;20087;-66
2022/11/02 02:40:51;;;;;;;14.85;3.90;;;;;;;;;;5090810;28;20075;-67
2022/11/02 02:43:20;;;;;;;14.27;4.13;;;;;;;;;;5091079;28;20056;-66
2022/11/02 02:45:52;;;;;;;12.23;3.88;;;;;;;;;;5090926;28;20052;-68
2022/11/02 02:48:19;;;;;;;14.43;4.10;;;;;;;;;;5090795;28;20124;-69
2022/11/02 02:50:49;;;;;;;16.52;4.82;;;;;;;;;;5089173;28;20345;-66
2022/11/02 02:53:18;;;;;;;18.92;4.70;;;;;;;;;;5090324;28;20052;-67
2022/11/02 02:55:46;;;;;;;19.25;4.70;;;;;;;;;;5090518;28;20051;-71
2022/11/02 02:58:15;;;;;;;21.23;4.70;;;;;;;;;;5090518;28;20112;-68
2022/11/02 03:00:41;;;;;;;17.77;4.57;;;;;;;;;;5090473;28;20437;-66
2022/11/02 03:03:15;;;;;;;18.58;4.00;;;;;;;;;;5090591;28;20048;-73
2022/11/02 03:05:41;;;;;;;13.90;4.22;;;;;;;;;;5090810;28;20048;-78
2022/11/02 03:08:09;;;;;;;12.15;3.83;;;;;;;;;;5090735;28;20048;-70
2022/11/02 03:10:58;;;;;;;15.35;3.75;;;;;;;;;;5090405;28;20468;-70
2022/11/02 03:13:27;;;;;;;13.82;3.15;;;;;;;;;;5087148;28;20056;-68
2022/11/02 03:16:06;;;;;;;13.18;3.03;;;;;;;;;;5090484;28;20040;-67
2022/11/02 03:18:51;;;;;;;11.90;2.85;;;;;;;;;;5090286;28;20083;-67
2022/11/02 03:21:25;;;;;;;11.98;2.47;;;;;;;;;;5090270;28;20050;-71
2022/11/02 03:23:54;;;;;;;13.90;2.53;;;;;;;;;;5090495;28;20075;-67
2022/11/02 03:26:27;;;;;;;16.65;2.78;;;;;;;;;;5090505;28;20078;-72
2022/11/02 03:28:53;;;;;;;12.90;2.80;;;;;;;;;;5090045;28;20467;-72
2022/11/02 03:31:39;;;;;;;12.63;2.25;;;;;;;;;;5090122;28;20055;-70
2022/11/02 03:34:08;;;;;;;14.02;2.55;;;;;;;;;;5088530;28;20052;-71
2022/11/02 03:36:39;;;;;;;10.27;2.38;;;;;;;;;;5090132;28;20160;-72
2022/11/02 03:39:09;;;;;;;12.30;2.80;;;;;;;;;;5090049;28;20079;-71
2022/11/02 03:41:37;;;;;;;10.68;2.35;;;;;;;;;;5089872;28;20142;-72
2022/11/02 03:44:06;;;;;;;13.82;2.50;;;;;;;;;;5088124;28;20407;-70
2022/11/02 03:46:33;;;;;;;12.02;2.30;;;;;;;;;;5090020;28;20048;-72
2022/11/02 03:49:00;;;;;;;11.25;2.42;;;;;;;;;;5090002;28;20075;-72
2022/11/02 03:51:27;;;;;;;10.70;2.70;;;;;;;;;;5089984;28;20040;-70
2022/11/02 03:53:59;;;;;;;9.93;2.40;;;;;;;;;;5090032;28;20440;-69
2022/11/02 03:56:36;;;;;;;13.05;2.83;;;;;;;;;;5089782;28;20054;-72
2022/11/02 03:59:02;;;;;;;10.32;2.50;;;;;;;;;;5089870;28;20040;-73
2022/11/02 04:01:29;;;;;;;11.32;2.50;;;;;;;;;;5090004;28;20116;-68
2022/11/02 04:03:55;;;;;;;10.52;2.65;;;;;;;;;;5089926;28;20235;-66
2022/11/02 04:06:22;;;;;;;16.00;2.85;;;;;;;;;;5089782;28;20040;-69
2022/11/02 04:08:48;;;;;;;14.48;3.10;;;;;;;;;;5089933;28;20059;-71
2022/11/02 04:16:49;;;;;;;15.02;3.00;;;;;;;;;;5089461;28;20120;-70
2022/11/02 04:19:27;;;;;;;14.93;3.00;;;;;;;;;;5089321;28;20078;-72
2022/11/02 04:27:23;;;;;;;15.13;3.05;;;;;;;;;;5089215;28;20157;-67
2022/11/02 04:29:49;;;;;;;12.07;2.72;;;;;;;;;;5089150;28;20040;-70
2022/11/02 04:33:31;;;;;;;13.70;3.13;;;;;;;;;;5087748;28;20056;-70
2022/11/02 04:35:02;;;;;;;17.50;3.13;;;;;;;;;;5089003;28;20047;-65
2022/11/02 04:40:12;;;;;;;16.63;3.30;;;;;;;;;;5088638;28;20521;-66
2022/11/02 04:42:38;;;;;;;21.17;2.80;;;;;;;;;;5088781;28;20185;-66
2022/11/02 04:45:05;;;;;;;16.92;3.15;;;;;;;;;;5089128;28;20067;-70
2022/11/02 04:47:31;;;;;;;16.38;3.15;;;;;;;;;;5087473;28;20067;-69
2022/11/02 04:49:57;;;;;;;18.05;3.25;;;;;;;;;;5088852;28;20391;-69
2022/11/02 04:52:23;;;;;;;15.68;3.10;;;;;;;;;;5088613;28;20530;-67
2022/11/02 04:54:49;;;;;;;14.00;3.08;;;;;;;;;;5088557;28;20062;-69
2022/11/02 04:57:15;;;;;;;17.33;3.55;;;;;;;;;;5089064;28;20083;-70
2022/11/02 04:59:41;;;;;;;14.15;3.22;;;;;;;;;;5088446;28;20044;-68
2022/11/02 05:02:07;;;;;;;12.18;3.08;;;;;;;;;;5089132;28;20048;-69
2022/11/02 05:04:33;;;;;;;15.82;3.35;;;;;;;;;;5088718;28;20096;-68
2022/11/02 05:06:59;;;;;;;15.00;3.08;;;;;;;;;;5089456;28;20105;-69
2022/11/02 05:09:25;;;;;;;14.98;3.38;;;;;;;;;;5070820;28;20047;-64
2022/11/02 05:11:51;;;;;;;18.58;3.45;;;;;;;;;;5088599;28;20051;-67
2022/11/02 05:14:17;;;;;;;16.02;3.92;;;;;;;;;;5088850;28;20380;-67
2022/11/02 05:16:43;;;;;;;16.08;3.20;;;;;;;;;;5088731;28;20451;-66
2022/11/02 05:19:09;;;;;;;17.95;3.60;;;;;;;;;;5088876;28;20036;-68
2022/11/02 05:21:35;;;;;;;17.15;3.33;;;;;;;;;;5088718;28;20252;-70
2022/11/02 05:24:01;;;;;;;16.00;3.60;;;;;;;;;;5090378;28;20063;-66
2022/11/02 05:26:27;;;;;;;14.52;3.67;;;;;;;;;;5092522;28;20044;-67
2022/11/02 05:28:53;;;;;;;15.18;3.65;;;;;;;;;;5092542;28;20051;-66
2022/11/02 05:31:19;;;;;;;17.23;3.53;;;;;;;;;;5092081;28;20040;-64
2022/11/02 05:33:45;;;;;;;16.52;3.75;;;;;;;;;;5092771;28;20214;-68
2022/11/02 05:36:11;;;;;;;16.23;3.60;;;;;;;;;;5092576;28;20044;-68
2022/11/02 05:38:37;;;;;;;16.55;3.92;;;;;;;;;;5090955;28;20101;-66
2022/11/02 05:41:04;;;;;;;17.42;3.92;;;;;;;;;;5124633;27;20074;-68
2022/11/02 05:43:30;;;;;;;18.55;4.18;;;;;;;;;;5091955;28;20052;-72
2022/11/02 05:45:57;;;;;;;17.17;3.90;;;;;;;;;;5091858;28;20484;-66
2022/11/02 05:48:24;;;;;;;14.95;3.85;;;;;;;;;;5092278;28;20044;-65
2022/11/02 05:50:55;;;;;;;16.85;4.18;;;;;;;;;;5091781;28;20422;-65
2022/11/02 05:53:21;;;;;;;22.10;4.65;;;;;;;;;;5092045;28;20552;-68
2022/11/02 05:55:47;;;;;;;18.88;4.32;;;;;;;;;;5092311;28;20112;-66
2022/11/02 05:58:13;;;;;;;15.25;3.85;;;;;;;;;;5092052;28;20051;-63
2022/11/02 06:00:39;;;;;;;19.05;4.43;;;;;;;;;;5091842;28;20059;-65
2022/11/02 06:03:05;;;;;;;17.75;3.85;;;;;;;;;;5092232;28;20185;-64
2022/11/02 06:05:32;;;;;;;22.58;3.88;;;;;;;;;;5091448;28;20040;-65
2022/11/02 06:08:01;;;;;;;15.70;4.18;;;;;;;;;;5092233;28;20066;-67
2022/11/02 06:10:28;;;;;;;16.08;4.50;;;;;;;;;;5091626;28;20040;-66
2022/11/02 06:12:58;;;;;;;21.38;4.40;;;;;;;;;;5091701;28;20433;-67
2022/11/02 06:15:25;;;;;;;17.05;4.10;;;;;;;;;;5092284;28;20048;-65
2022/11/02 06:17:51;;;;;;;;;;;;;;;;;;5092502;28;20467;-67
2022/11/02 06:20:17;;;;;;;20.75;5.00;;;;;;;;;;5090299;28;20019;-67
2022/11/02 06:22:44;;;;;;;20.17;4.18;;;;;;;;;;5091450;28;20437;-67
2022/11/02 06:25:10;;;;;;;20.25;4.53;;;;;;;;;;5091832;28;20040;-67
2022/11/02 06:27:36;;;;;;;16.98;4.20;;;;;;;;;;5091350;28;20186;-69
2022/11/02 06:30:03;;;;;;;15.50;4.25;;;;;;;;;;5091373;28;20036;-68
2022/11/02 06:32:29;;;;;;;21.85;5.15;;;;;;;;;;5091082;28;20063;-67
2022/11/02 06:34:55;;;;;;;17.42;4.07;;;;;;;;;;5090294;28;20083;-71
2022/11/02 06:37:21;;;;;;;23.05;4.38;;;;;;;;;;5089601;28;20044;-71
2022/11/02 06:39:47;;;;;;;23.98;4.38;;;;;;;;;;5090857;28;20108;-68
2022/11/02 06:42:14;;;;;;;14.40;3.72;;;;;;;;;;5091031;28;20083;-65
2022/11/02 06:44:40;;;;;;;16.70;4.78;;;;;;;;;;5091258;28;20044;-72
2022/11/02 06:47:06;;;;;;;20.83;4.40;;;;;;;;;;5091802;28;20400;-69
2022/11/02 06:49:32;;;;;;;20.60;4.45;;;;;;;;;;5091677;28;20039;-66
2022/11/02 06:51:58;;;;;;;21.30;3.97;;;;;;;;;;5092001;28;20059;-66
2022/11/02 06:54:24;;;;;;;22.08;4.10;;;;;;;;;;5092009;28;20056;-66
2022/11/02 06:56:50;;;;;;;18.70;4.35;;;;;;;;;;5092611;28;20084;-65
2022/11/02 06:59:16;;;;;;;19.73;6.40;;;;;;;;;;5092533;28;20093;-64
2022/11/02 07:01:42;;;;;;;18.67;3.70;;;;;;;;;;5092618;28;20054;-66
2022/11/02 07:04:08;;;;;;;17.52;3.05;;;;;;;;;;5092131;28;20043;-67
2022/11/02 07:06:34;;;;;;;19.33;4.60;;;;;;;;;;5092169;28;20092;-66
2022/11/02 07:09:00;;;;;;;20.30;4.03;;;;;;;;;;5091387;28;20047;-66
2022/11/02 07:11:27;;;;;;;18.05;4.10;;;;;;;;;;5092570;28;20084;-66
2022/11/02 07:13:53;;;;;;;19.58;4.55;;;;;;;;;;5092608;28;20062;-66
2022/11/02 07:16:19;;;;;;;22.98;3.97;;;;;;;;;;5091569;28;20060;-64
2022/11/02 07:18:45;;;;;;;21.70;5.75;;;;;;;;;;5090295;28;20040;-68
2022/11/02 07:21:11;;;;;;;22.90;7.75;;;;;;;;;;5090473;28;20120;-66
2022/11/02 07:23:37;;;;;;;17.15;3.97;;;;;;;;;;5090553;28;20079;-64
2022/11/02 07:26:04;;;;;;;18.17;3.65;;;;;;;;;;5090284;28;20040;-65
2022/11/02 07:28:30;;;;;;;20.88;4.00;;;;;;;;;;5090151;28;20144;-63
2022/11/02 07:30:56;;;;;;;22.25;3.83;;;;;;;;;;5090473;28;20044;-64
2022/11/02 07:33:22;;;;;;;29.65;3.80;;;;;;;;;;5090446;28;20143;-64
2022/11/02 07:35:48;;;;;;;21.90;3.97;;;;;;;;;;5089998;28;20048;-66
2022/11/02 07:38:14;;;;;;;18.55;3.67;;;;;;;;;;5090348;28;20048;-65
2022/11/02 07:40:40;;;;;;;18.75;3.65;;;;;;;;;;5090180;28;20040;-64
2022/11/02 07:43:08;;;;;;;17.02;3.85;;;;;;;;;;5090168;28;20174;-65
2022/11/02 07:45:34;;;;;;;14.52;3.47;;;;;;;;;;5089531;28;20056;-66
2022/11/02 07:48:00;;;;;;;20.85;4.10;;;;;;;;;;5089826;28;20067;-65
2022/11/02 07:50:26;;;;;;;18.08;3.50;;;;;;;;;;5089576;28;20086;-68
2022/11/02 07:52:53;;;;;;;16.42;3.65;;;;;;;;;;5090052;28;20139;-66
2022/11/02 07:55:21;;;;;;;14.77;2.88;;;;;;;;;;5089814;28;20479;-65
2022/11/02 07:57:58;;;;;;;14.85;2.85;;;;;;;;;;5089996;28;20484;-64
2022/11/02 08:00:25;;;;;;;13.75;2.65;;;;;;;;;;5089617;28;20048;-63
2022/11/02 08:02:55;;;;;;;13.73;3.22;;;;;;;;;;5089597;28;20086;-65
2022/11/02 08:05:21;;;;;;;24.05;3.85;;;;;;;;;;5089682;28;20149;-64
2022/11/02 08:07:47;;;;;;;12.35;2.80;;;;;;;;;;5088491;28;20055;-67
2022/11/02 08:10:14;;;;;;;18.63;2.92;;;;;;;;;;5089468;28;20429;-64
2022/11/02 08:12:40;;;;;;;;;;;;;;;;;;5089928;28;20074;-63
2022/11/02 08:15:06;;;;;;;11.75;2.70;;;;;;;;;;5087929;28;19928;-64
2022/11/02 08:17:32;;;;;;;12.82;2.80;;;;;;;;;;5089681;28;20044;-63
2022/11/02 08:19:58;;;;;;;14.13;2.83;;;;;;;;;;5089314;28;20044;-65
2022/11/02 08:22:24;;;;;;;17.98;3.17;;;;;;;;;;5089567;28;20079;-63
2022/11/02 08:24:50;;;;;;;12.82;3.00;;;;;;;;;;5089563;28;20044;-65
2022/11/02 08:27:16;;;;;;;11.60;2.28;;;;;;;;;;5089270;28;20069;-63
2022/11/02 08:29:42;;;;;;;12.48;3.38;;;;;;;;;;5090635;28;20092;-63
2022/11/02 08:32:08;;;;;;;14.02;2.78;;;;;;;;;;5089401;28;20195;-64
2022/11/02 08:34:34;;;;;;;13.07;2.70;;;;;;;;;;5089578;28;20040;-64
2022/11/02 08:37:00;;;;;;;21.67;3.38;;;;;;;;;;5089601;28;20112;-65
2022/11/02 08:39:26;;;;;;;13.48;2.85;;;;;;;;;;5087699;28;20127;-63
2022/11/02 08:41:52;;;;;;;16.35;3.13;;;;;;;;;;5089408;28;20082;-65
2022/11/02 08:44:19;;;;;;;12.15;2.55;;;;;;;;;;5089424;28;20060;-65
2022/11/02 08:46:45;;;;;;;16.80;2.83;;;;;;;;;;5089343;28;20421;-63
2022/11/02 08:49:11;;;;;;;16.92;3.25;;;;;;;;;;5087903;28;20384;-65
2022/11/02 08:51:37;;;;;;;13.65;3.17;;;;;;;;;;5089244;28;20044;-64
2022/11/02 08:54:03;;;;;;;14.25;3.38;;;;;;;;;;5089273;28;20077;-63
2022/11/02 08:56:29;;;;;;;15.77;3.45;;;;;;;;;;5089667;28;20044;-65
2022/11/02 08:58:55;;;;;;;16.35;3.45;;;;;;;;;;5092790;28;20044;-65
2022/11/02 09:01:21;;;;;;;13.45;2.88;;;;;;;;;;5093652;28;20044;-65
2022/11/02 09:03:47;;;;;;;14.35;3.42;;;;;;;;;;5093292;28;20054;-62
2022/11/02 09:06:13;;;;;;;16.80;4.25;;;;;;;;;;5093354;28;20182;-65
2022/11/02 09:08:39;;;;;;;14.30;2.78;;;;;;;;;;5093073;28;20052;-67
2022/11/02 09:11:05;;;;;;;17.67;3.78;;;;;;;;;;5092975;28;20052;-70
2022/11/02 09:13:31;;;;;;;;;;;;;;;;;;5093508;28;20060;-64
2022/11/02 09:15:58;;;;;;;12.50;2.90;;;;;;;;;;5092549;28;19997;-64
2022/11/02 09:18:24;;;;;;;18.27;3.72;;;;;;;;;;5092969;28;20063;-63
2022/11/02 09:20:50;;;;;;;14.65;3.70;;;;;;;;;;5092321;28;20476;-64
2022/11/02 09:23:17;;;;;;;12.02;3.38;;;;;;;;;;5092547;28;20096;-65
2022/11/02 09:25:43;;;;;;;16.73;3.65;;;;;;;;;;5091088;28;20098;-63
2022/11/02 09:28:09;;;;;;;;;;;;;;;;;;5093815;28;20040;-64
2022/11/02 09:30:35;;;;;;;21.23;4.18;;;;;;;;;;5092653;28;19924;-66
2022/11/02 09:33:03;;;;;;;17.42;3.65;;;;;;;;;;5090984;28;20090;-63
2022/11/02 09:35:30;;;;;;;18.48;3.65;;;;;;;;;;5091091;28;20052;-63
2022/11/02 09:37:57;;;;;;;17.77;3.90;;;;;;;;;;5092159;28;20131;-63
2022/11/02 09:40:24;;;;;;;16.63;3.30;;;;;;;;;;5092691;28;20051;-62
2022/11/02 09:43:09;;;;;;;19.52;4.28;;;;;;;;;;5092405;28;20082;-62
2022/11/02 09:45:52;;;;;;;20.75;4.25;;;;;;;;;;5092627;28;20052;-63
2022/11/02 09:48:22;;;;;;;16.70;3.72;;;;;;;;;;5092181;28;20468;-63
2022/11/02 09:50:50;;;;;;;20.67;4.75;;;;;;;;;;5092534;28;20081;-63
2022/11/02 09:53:19;;;;;;;20.15;3.85;;;;;;;;;;5092836;28;20040;-63
2022/11/02 09:55:55;;;;;;;16.60;3.60;;;;;;;;;;5092627;28;20130;-63
2022/11/02 09:58:24;;;;;;;24.70;4.10;;;;;;;;;;5092464;28;20429;-63
2022/11/02 10:00:51;;;;;;;17.45;4.10;;;;;;;;;;5092597;28;20395;-62
2022/11/02 10:03:39;;;;;;;17.13;3.67;;;;;;;;;;5092417;28;20044;-64
2022/11/02 10:06:12;;;;;;;19.50;4.05;;;;;;;;;;5092526;28;20063;-63
2022/11/02 10:09:01;;;;;;;17.85;3.53;;;;;;;;;;5092027;28;20048;-62
2022/11/02 10:11:34;;;;;;;21.05;4.45;;;;;;;;;;5088800;28;20345;-63
2022/11/02 10:14:15;;;;;;;19.10;3.70;;;;;;;;;;5092555;28;20059;-62
2022/11/02 10:16:57;;;;;;;17.35;3.67;;;;;;;;;;5092204;28;20064;-63
2022/11/02 10:19:23;;;;;;;16.17;3.90;;;;;;;;;;5092466;28;20096;-63
2022/11/02 10:21:52;;;;;;;17.08;3.70;;;;;;;;;;5091701;28;20047;-63
2022/11/02 10:24:38;;;;;;;21.20;4.00;;;;;;;;;;5092041;28;20116;-62
2022/11/02 10:27:06;;;;;;;17.25;3.47;;;;;;;;;;5091875;28;20060;-64
2022/11/02 10:29:46;;;;;;;18.50;3.03;;;;;;;;;;5092113;28;20229;-63
2022/11/02 10:32:12;;;;;;;18.02;4.18;;;;;;;;;;5091364;28;20048;-64
2022/11/02 10:34:39;;;;;;;16.50;3.30;;;;;;;;;;5091882;28;20040;-63
2022/11/02 10:37:25;;;;;;;16.92;3.67;;;;;;;;;;5092052;28;20048;-65
2022/11/02 10:40:09;;;;;;;17.13;3.83;;;;;;;;;;5090425;28;20040;-64
2022/11/02 10:42:35;;;;;;;18.48;3.03;;;;;;;;;;5092002;28;20071;-65
2022/11/02 10:45:01;;;;;;;16.42;3.15;;;;;;;;;;5091768;28;20119;-63
2022/11/02 10:47:30;;;;;;;15.75;3.33;;;;;;;;;;5091659;28;20133;-65
2022/11/02 10:50:13;;;;;;;21.48;3.97;;;;;;;;;;5091671;28;20146;-64
2022/11/02 10:52:40;;;;;;;21.73;3.88;;;;;;;;;;5091671;28;20052;-64
2022/11/02 10:55:08;;;;;;;19.70;4.10;;;;;;;;;;5091173;28;20087;-63
2022/11/02 10:57:37;;;;;;;17.33;4.18;;;;;;;;;;5091280;28;20055;-64
2022/11/02 11:00:22;;;;;;;21.25;4.93;;;;;;;;;;5091404;28;20097;-63
2022/11/02 11:03:08;;;;;;;18.80;4.95;;;;;;;;;;5090836;28;20464;-64
2022/11/02 11:05:35;;;;;;;15.45;3.90;;;;;;;;;;5090958;28;20043;-63
2022/11/02 11:08:02;;;;;;;16.60;3.20;;;;;;;;;;5090700;28;20113;-65
2022/11/02 11:10:31;;;;;;;17.27;3.15;;;;;;;;;;5090825;28;20512;-63
2022/11/02 11:12:57;;;;;;;16.85;3.65;;;;;;;;;;5090961;28;20375;-65
2022/11/02 11:15:27;;;;;;;16.13;2.90;;;;;;;;;;5091079;28;20150;-65
2022/11/02 11:17:54;;;;;;;15.82;3.20;;;;;;;;;;5092001;28;20091;-63
2022/11/02 11:20:32;;;;;;;18.75;3.25;;;;;;;;;;5091205;28;20126;-64
2022/11/02 11:23:27;;;;;;;14.32;3.53;;;;;;;;;;5090882;28;20055;-64
2022/11/02 11:25:54;;;;;;;17.88;3.70;;;;;;;;;;5085601;28;20086;-64
2022/11/02 11:28:22;;;;;;;17.98;3.33;;;;;;;;;;5090472;28;20157;-64
2022/11/02 11:30:50;;;;;;;13.73;3.00;;;;;;;;;;5089708;28;20047;-64
2022/11/02 11:33:17;;;;;;;18.67;3.13;;;;;;;;;;5090921;28;20181;-64
2022/11/02 11:35:47;;;;;;;15.65;3.25;;;;;;;;;;5090603;28;20093;-66
2022/11/02 11:38:18;;;;;;;17.73;3.45;;;;;;;;;;5090316;28;20119;-64
2022/11/02 11:40:46;;;;;;;12.75;3.00;;;;;;;;;;5090710;28;20052;-68
2022/11/02 11:43:15;;;;;;;18.65;3.30;;;;;;;;;;5088980;28;20056;-66
2022/11/02 11:45:53;;;;;;;15.57;3.20;;;;;;;;;;5090354;28;20333;-65
2022/11/02 11:48:31;;;;;;;14.32;3.20;;;;;;;;;;5090008;28;20044;-66
2022/11/02 11:51:01;;;;;;;15.50;3.30;;;;;;;;;;5090471;28;20071;-66
2022/11/02 11:53:30;;;;;;;16.52;3.05;;;;;;;;;;5088763;28;20123;-65
2022/11/02 11:55:59;;;;;;;;;;;;;;;;;;5089454;28;20207;-64
2022/11/02 11:58:28;;;;;;;15.70;2.97;;;;;;;;;;5094128;28;19986;-67
2022/11/02 12:01:15;;;;;;;16.13;3.17;;;;;;;;;;5093788;28;20040;-63
2022/11/02 12:03:51;;;;;;;14.43;2.90;;;;;;;;;;5094864;28;20048;-63
2022/11/02 12:06:25;;;;;;;13.60;3.00;;;;;;;;;;5094256;28;20078;-63
2022/11/02 12:09:00;;;;;;;12.18;2.45;;;;;;;;;;5094040;28;20460;-68
2022/11/02 12:11:31;;;;;;;13.10;2.38;;;;;;;;;;5093920;28;20051;-67
2022/11/02 12:14:06;;;;;;;14.52;2.75;;;;;;;;;;5093883;28;20357;-66
2022/11/02 12:16:40;;;;;;;11.80;2.75;;;;;;;;;;5093520;28;20503;-66
2022/11/02 12:19:12;;;;;;;15.45;3.45;;;;;;;;;;5094240;28;20375;-68
2022/11/02 12:21:57;;;;;;;18.83;3.35;;;;;;;;;;5093182;28;20515;-62
2022/11/02 12:24:23;;;;;;;15.32;3.22;;;;;;;;;;5093508;28;20048;-65
2022/11/02 12:27:24;;;;;;;19.00;3.03;;;;;;;;;;5094167;28;20055;-63
2022/11/02 12:30:09;;;;;;;15.10;3.15;;;;;;;;;;5071047;28;20123;-66
2022/11/02 12:32:49;;;;;;;12.57;2.97;;;;;;;;;;5091178;28;20051;-68
2022/11/02 12:35:27;;;;;;;12.02;2.97;;;;;;;;;;5093379;28;20096;-65
2022/11/02 12:37:59;;;;;;;18.15;4.20;;;;;;;;;;5093257;28;20094;-66
2022/11/02 12:40:25;;;;;;;19.20;3.25;;;;;;;;;;5093982;28;20052;-67
2022/11/02 12:42:57;;;;;;;17.23;3.28;;;;;;;;;;5093552;28;20113;-63
2022/11/02 12:45:26;;;;;;;15.07;2.88;;;;;;;;;;5093379;28;20109;-64
2022/11/02 12:47:57;;;;;;;15.65;3.40;;;;;;;;;;5094105;28;20040;-64
2022/11/02 12:50:29;;;;;;;15.45;3.08;;;;;;;;;;5093339;28;20131;-65
2022/11/02 12:53:04;;;;;;;15.45;2.92;;;;;;;;;;5093145;28;20057;-64
2022/11/02 12:55:41;;;;;;;15.88;3.35;;;;;;;;;;5093291;28;20051;-64
2022/11/02 12:58:12;;;;;;;17.98;3.58;;;;;;;;;;5093680;28;20040;-64
2022/11/02 13:00:41;;;;;;;15.18;3.13;;;;;;;;;;5094247;28;20126;-64
2022/11/02 13:03:07;;;;;;;14.32;2.95;;;;;;;;;;5093362;28;20412;-64
2022/11/02 13:05:39;;;;;;;16.10;3.33;;;;;;;;;;5093309;28;20048;-66
2022/11/02 13:08:15;;;;;;;14.60;3.03;;;;;;;;;;5093213;28;20044;-63
2022/11/02 13:10:41;;;;;;;13.88;3.05;;;;;;;;;;5093295;28;20079;-66
2022/11/02 13:13:12;;;;;;;13.93;3.05;;;;;;;;;;5093401;28;20133;-64
2022/11/02 13:15:39;;;;;;;17.63;3.28;;;;;;;;;;5092968;28;20529;-65
2022/11/02 13:18:10;;;;;;;12.93;2.72;;;;;;;;;;5093702;28;20080;-67
2022/11/02 13:20:42;;;;;;;16.83;3.55;;;;;;;;;;5092029;28;20474;-66
2022/11/02 13:23:14;;;;;;;17.08;3.47;;;;;;;;;;5093324;28;20078;-64
2022/11/02 13:25:42;;;;;;;16.55;3.30;;;;;;;;;;5093964;28;20113;-66
2022/11/02 13:28:13;;;;;;;16.45;3.03;;;;;;;;;;5093740;28;20101;-65
2022/11/02 13:30:40;;;;;;;14.27;2.83;;;;;;;;;;5093089;28;20069;-67
2022/11/02 13:33:25;;;;;;;17.85;3.63;;;;;;;;;;5093217;28;20452;-64
2022/11/02 13:35:53;;;;;;;17.98;3.88;;;;;;;;;;5092065;28;20122;-64
2022/11/02 13:38:30;;;;;;;15.75;3.53;;;;;;;;;;5092229;28;20052;-64
2022/11/02 13:41:25;;;;;;;18.63;3.88;;;;;;;;;;5093284;28;20056;-63
2022/11/02 13:44:09;;;;;;;15.48;3.40;;;;;;;;;;5073083;28;20060;-64
2022/11/02 13:46:38;;;;;;;17.23;2.90;;;;;;;;;;5097676;28;20432;-65
2022/11/02 13:49:04;;;;;;;14.82;3.35;;;;;;;;;;5097302;28;20080;-66
2022/11/02 13:51:48;;;;;;;14.10;2.88;;;;;;;;;;5096625;28;20051;-66
2022/11/02 13:54:20;;;;;;;14.52;3.20;;;;;;;;;;5096904;28;20090;-65
2022/11/02 13:56:47;;;;;;;15.07;3.10;;;;;;;;;;5096595;28;20048;-64
2022/11/02 13:59:20;;;;;;;17.08;3.28;;;;;;;;;;5096628;28;20040;-65
2022/11/02 14:01:47;;;;;;;18.20;3.40;;;;;;;;;;5096535;28;20051;-65
2022/11/02 14:04:14;;;;;;;20.00;3.65;;;;;;;;;;5097155;28;20135;-65
2022/11/02 14:07:00;;;;;;;18.10;3.17;;;;;;;;;;5095164;28;20051;-63
2022/11/02 14:09:32;;;;;;;13.75;2.78;;;;;;;;;;5096508;28;20052;-65
2022/11/02 14:12:17;;;;;;;16.92;3.25;;;;;;;;;;5096353;28;20128;-64
2022/11/02 14:15:03;;;;;;;14.23;3.05;;;;;;;;;;5096183;28;20051;-63
2022/11/02 14:17:29;;;;;;;14.85;3.30;;;;;;;;;;5096279;28;20051;-64
2022/11/02 14:19:57;;;;;;;16.27;3.60;;;;;;;;;;5096176;28;20036;-64
2022/11/02 14:22:23;;;;;;;18.23;3.67;;;;;;;;;;5096340;28;20123;-63
2022/11/02 14:24:49;;;;;;;17.58;3.47;;;;;;;;;;5096004;28;20046;-63
2022/11/02 14:27:20;;;;;;;17.73;3.38;;;;;;;;;;5096774;28;20044;-65
2022/11/02 14:29:46;;;;;;;21.08;4.25;;;;;;;;;;5096125;28;20044;-64
2022/11/02 14:32:33;;;;;;;14.10;3.10;;;;;;;;;;5096107;28;20054;-65
2022/11/02 14:35:18;;;;;;;17.05;3.60;;;;;;;;;;5091887;28;20060;-62
2022/11/02 14:37:47;;;;;;;19.42;3.30;;;;;;;;;;5095721;28;20083;-64
2022/11/02 14:40:32;;;;;;;18.58;3.80;;;;;;;;;;5094637;28;20058;-63
2022/11/02 14:43:16;;;;;;;19.42;3.55;;;;;;;;;;5095744;28;20102;-64
2022/11/02 14:45:51;;;;;;;15.32;3.35;;;;;;;;;;5096529;28;20088;-64
2022/11/02 14:48:17;;;;;;;19.55;3.83;;;;;;;;;;5095631;28;20162;-63
2022/11/02 14:50:56;;;;;;;18.08;3.55;;;;;;;;;;5096301;28;20044;-64
2022/11/02 14:53:27;;;;;;;16.70;3.67;;;;;;;;;;5096146;28;20040;-64
2022/11/02 14:55:54;;;;;;;18.70;3.38;;;;;;;;;;5095371;28;20048;-64
2022/11/02 14:58:22;;;;;;;17.13;3.53;;;;;;;;;;5095523;28;20079;-65
2022/11/02 15:00:48;;;;;;;18.20;3.30;;;;;;;;;;5095795;28;20383;-62